sensor_id;sensor_type;location;lat;lon;timestamp;P1;durP1;ratioP1;P2;durP2;ratioP2
15312;SDS011;7757;52.626;4.746;2022-07-25T00:01:03;23.17;;;13.45;;
15312;SDS011;7757;52.626;4.746;2022-07-25T00:03:30;22.05;;;12.50;;
15312;SDS011;7757;52.626;4.746;2022-07-25T00:05:56;21.42;;;12.38;;
15312;SDS011;7757;52.626;4.746;2022-07-25T00:08:23;21.25;;;10.70;;
15312;SDS011;7757;52.626;4.746;2022-07-25T00:10:49;22.33;;;12.00;;
15312;SDS011;7757;52.626;4.746;2022-07-25T00:13:17;25.25;;;11.80;;
15312;SDS011;7757;52.626;4.746;2022-07-25T00:15:44;21.08;;;11.13;;
15312;SDS011;7757;52.626;4.746;2022-07-25T00:18:10;20.33;;;11.27;;
15312;SDS011;7757;52.626;4.746;2022-07-25T00:20:37;21.77;;;11.50;;
15312;SDS011;7757;52.626;4.746;2022-07-25T00:23:03;20.40;;;11.27;;
15312;SDS011;7757;52.626;4.746;2022-07-25T00:25:30;18.67;;;10.68;;
15312;SDS011;7757;52.626;4.746;2022-07-25T00:27:57;19.88;;;10.98;;
15312;SDS011;7757;52.626;4.746;2022-07-25T00:30:25;18.67;;;10.43;;
15312;SDS011;7757;52.626;4.746;2022-07-25T00:32:51;19.33;;;10.43;;
15312;SDS011;7757;52.626;4.746;2022-07-25T00:35:18;17.45;;;9.48;;
15312;SDS011;7757;52.626;4.746;2022-07-25T00:37:44;18.77;;;8.95;;
15312;SDS011;7757;52.626;4.746;2022-07-25T00:40:11;19.52;;;9.68;;
15312;SDS011;7757;52.626;4.746;2022-07-25T00:42:38;19.77;;;9.38;;
15312;SDS011;7757;52.626;4.746;2022-07-25T00:45:04;19.55;;;9.82;;
15312;SDS011;7757;52.626;4.746;2022-07-25T00:47:33;16.55;;;8.80;;
15312;SDS011;7757;52.626;4.746;2022-07-25T00:49:59;18.13;;;8.07;;
15312;SDS011;7757;52.626;4.746;2022-07-25T00:52:26;19.60;;;8.68;;
15312;SDS011;7757;52.626;4.746;2022-07-25T00:54:53;18.88;;;8.93;;
15312;SDS011;7757;52.626;4.746;2022-07-25T00:57:20;16.75;;;8.85;;
15312;SDS011;7757;52.626;4.746;2022-07-25T00:59:47;16.52;;;7.93;;
15312;SDS011;7757;52.626;4.746;2022-07-25T01:02:14;18.98;;;8.13;;
15312;SDS011;7757;52.626;4.746;2022-07-25T01:04:41;15.20;;;7.22;;
15312;SDS011;7757;52.626;4.746;2022-07-25T01:07:08;16.08;;;7.43;;
15312;SDS011;7757;52.626;4.746;2022-07-25T01:09:35;16.60;;;6.32;;
15312;SDS011;7757;52.626;4.746;2022-07-25T01:12:02;14.50;;;6.40;;
15312;SDS011;7757;52.626;4.746;2022-07-25T01:14:29;15.45;;;6.15;;
15312;SDS011;7757;52.626;4.746;2022-07-25T01:16:56;16.17;;;7.03;;
15312;SDS011;7757;52.626;4.746;2022-07-25T01:19:22;14.63;;;7.07;;
15312;SDS011;7757;52.626;4.746;2022-07-25T01:21:50;13.70;;;5.97;;
15312;SDS011;7757;52.626;4.746;2022-07-25T01:24:17;12.98;;;6.43;;
15312;SDS011;7757;52.626;4.746;2022-07-25T01:26:44;14.00;;;6.45;;
15312;SDS011;7757;52.626;4.746;2022-07-25T01:29:10;15.70;;;5.78;;
15312;SDS011;7757;52.626;4.746;2022-07-25T01:31:37;13.75;;;6.30;;
15312;SDS011;7757;52.626;4.746;2022-07-25T01:34:03;13.50;;;5.97;;
15312;SDS011;7757;52.626;4.746;2022-07-25T01:36:30;13.25;;;6.00;;
15312;SDS011;7757;52.626;4.746;2022-07-25T01:38:58;17.45;;;5.47;;
15312;SDS011;7757;52.626;4.746;2022-07-25T01:41:24;13.65;;;5.85;;
15312;SDS011;7757;52.626;4.746;2022-07-25T01:43:51;14.43;;;5.32;;
15312;SDS011;7757;52.626;4.746;2022-07-25T01:46:17;14.13;;;5.63;;
15312;SDS011;7757;52.626;4.746;2022-07-25T01:48:44;13.77;;;5.88;;
15312;SDS011;7757;52.626;4.746;2022-07-25T01:51:10;12.93;;;5.03;;
15312;SDS011;7757;52.626;4.746;2022-07-25T01:53:37;13.68;;;4.70;;
15312;SDS011;7757;52.626;4.746;2022-07-25T01:56:05;13.43;;;4.95;;
15312;SDS011;7757;52.626;4.746;2022-07-25T01:58:32;11.25;;;4.78;;
15312;SDS011;7757;52.626;4.746;2022-07-25T02:00:58;11.55;;;4.90;;
15312;SDS011;7757;52.626;4.746;2022-07-25T02:03:25;12.70;;;4.95;;
15312;SDS011;7757;52.626;4.746;2022-07-25T02:05:55;13.23;;;4.95;;
15312;SDS011;7757;52.626;4.746;2022-07-25T02:08:21;12.38;;;4.40;;
15312;SDS011;7757;52.626;4.746;2022-07-25T02:10:48;11.68;;;4.63;;
15312;SDS011;7757;52.626;4.746;2022-07-25T02:13:16;10.65;;;4.40;;
15312;SDS011;7757;52.626;4.746;2022-07-25T02:15:42;11.38;;;4.85;;
15312;SDS011;7757;52.626;4.746;2022-07-25T02:18:09;10.90;;;4.40;;
15312;SDS011;7757;52.626;4.746;2022-07-25T02:20:35;11.43;;;4.25;;
15312;SDS011;7757;52.626;4.746;2022-07-25T02:23:02;13.27;;;4.63;;
15312;SDS011;7757;52.626;4.746;2022-07-25T02:25:29;11.48;;;4.18;;
15312;SDS011;7757;52.626;4.746;2022-07-25T02:27:56;11.68;;;4.57;;
15312;SDS011;7757;52.626;4.746;2022-07-25T02:30:23;11.18;;;4.15;;
15312;SDS011;7757;52.626;4.746;2022-07-25T02:32:51;11.27;;;4.25;;
15312;SDS011;7757;52.626;4.746;2022-07-25T02:35:17;11.60;;;4.40;;
15312;SDS011;7757;52.626;4.746;2022-07-25T02:37:44;13.55;;;4.55;;
15312;SDS011;7757;52.626;4.746;2022-07-25T02:40:11;10.38;;;4.00;;
15312;SDS011;7757;52.626;4.746;2022-07-25T02:42:38;11.32;;;4.13;;
15312;SDS011;7757;52.626;4.746;2022-07-25T02:45:05;11.52;;;3.72;;
15312;SDS011;7757;52.626;4.746;2022-07-25T02:47:33;12.38;;;4.28;;
15312;SDS011;7757;52.626;4.746;2022-07-25T02:50:00;11.68;;;3.70;;
15312;SDS011;7757;52.626;4.746;2022-07-25T02:52:27;13.35;;;4.00;;
15312;SDS011;7757;52.626;4.746;2022-07-25T02:54:53;10.32;;;3.65;;
15312;SDS011;7757;52.626;4.746;2022-07-25T02:57:19;10.65;;;3.97;;
15312;SDS011;7757;52.626;4.746;2022-07-25T02:59:46;10.75;;;3.70;;
15312;SDS011;7757;52.626;4.746;2022-07-25T03:02:13;10.02;;;3.75;;
15312;SDS011;7757;52.626;4.746;2022-07-25T03:04:41;10.18;;;3.40;;
15312;SDS011;7757;52.626;4.746;2022-07-25T03:07:07;10.18;;;3.67;;
15312;SDS011;7757;52.626;4.746;2022-07-25T03:09:34;11.05;;;3.90;;
15312;SDS011;7757;52.626;4.746;2022-07-25T03:12:00;9.52;;;3.15;;
15312;SDS011;7757;52.626;4.746;2022-07-25T03:14:27;9.38;;;3.22;;
15312;SDS011;7757;52.626;4.746;2022-07-25T03:16:53;10.50;;;3.50;;
15312;SDS011;7757;52.626;4.746;2022-07-25T03:19:20;11.38;;;3.50;;
15312;SDS011;7757;52.626;4.746;2022-07-25T03:21:48;10.82;;;3.60;;
15312;SDS011;7757;52.626;4.746;2022-07-25T03:24:14;10.30;;;3.70;;
15312;SDS011;7757;52.626;4.746;2022-07-25T03:26:42;10.63;;;3.50;;
15312;SDS011;7757;52.626;4.746;2022-07-25T03:29:09;10.68;;;3.70;;
15312;SDS011;7757;52.626;4.746;2022-07-25T03:31:36;10.60;;;3.50;;
15312;SDS011;7757;52.626;4.746;2022-07-25T03:34:03;10.30;;;3.33;;
15312;SDS011;7757;52.626;4.746;2022-07-25T03:36:30;9.77;;;3.40;;
15312;SDS011;7757;52.626;4.746;2022-07-25T03:38:58;10.18;;;3.50;;
15312;SDS011;7757;52.626;4.746;2022-07-25T03:41:24;10.60;;;3.28;;
15312;SDS011;7757;52.626;4.746;2022-07-25T03:43:51;9.82;;;3.33;;
15312;SDS011;7757;52.626;4.746;2022-07-25T03:46:17;9.75;;;3.50;;
15312;SDS011;7757;52.626;4.746;2022-07-25T03:48:44;11.25;;;3.50;;
15312;SDS011;7757;52.626;4.746;2022-07-25T03:51:10;10.13;;;3.60;;
15312;SDS011;7757;52.626;4.746;2022-07-25T03:53:37;9.88;;;3.55;;
15312;SDS011;7757;52.626;4.746;2022-07-25T03:56:19;10.98;;;3.63;;
15312;SDS011;7757;52.626;4.746;2022-07-25T03:58:45;12.18;;;3.60;;
15312;SDS011;7757;52.626;4.746;2022-07-25T04:01:12;10.93;;;3.45;;
15312;SDS011;7757;52.626;4.746;2022-07-25T04:03:38;10.05;;;3.22;;
15312;SDS011;7757;52.626;4.746;2022-07-25T04:06:05;9.82;;;3.05;;
15312;SDS011;7757;52.626;4.746;2022-07-25T04:08:32;9.98;;;3.60;;
15312;SDS011;7757;52.626;4.746;2022-07-25T04:10:58;10.05;;;3.55;;
15312;SDS011;7757;52.626;4.746;2022-07-25T04:13:26;10.02;;;3.45;;
15312;SDS011;7757;52.626;4.746;2022-07-25T04:15:53;9.65;;;3.22;;
15312;SDS011;7757;52.626;4.746;2022-07-25T04:18:20;10.23;;;3.20;;
15312;SDS011;7757;52.626;4.746;2022-07-25T04:20:47;9.77;;;3.30;;
15312;SDS011;7757;52.626;4.746;2022-07-25T04:23:14;11.30;;;3.10;;
15312;SDS011;7757;52.626;4.746;2022-07-25T04:25:40;8.85;;;2.88;;
15312;SDS011;7757;52.626;4.746;2022-07-25T04:28:07;9.77;;;3.28;;
15312;SDS011;7757;52.626;4.746;2022-07-25T04:30:34;9.23;;;3.05;;
15312;SDS011;7757;52.626;4.746;2022-07-25T04:33:01;8.15;;;3.03;;
15312;SDS011;7757;52.626;4.746;2022-07-25T04:35:28;10.25;;;3.28;;
15312;SDS011;7757;52.626;4.746;2022-07-25T04:37:54;9.13;;;3.10;;
15312;SDS011;7757;52.626;4.746;2022-07-25T04:40:21;9.38;;;3.15;;
15312;SDS011;7757;52.626;4.746;2022-07-25T04:42:47;9.05;;;3.03;;
15312;SDS011;7757;52.626;4.746;2022-07-25T04:45:14;9.60;;;2.85;;
15312;SDS011;7757;52.626;4.746;2022-07-25T04:47:42;8.57;;;2.97;;
15312;SDS011;7757;52.626;4.746;2022-07-25T04:50:08;10.00;;;3.05;;
15312;SDS011;7757;52.626;4.746;2022-07-25T04:52:35;8.05;;;2.63;;
15312;SDS011;7757;52.626;4.746;2022-07-25T04:55:02;9.40;;;2.80;;
15312;SDS011;7757;52.626;4.746;2022-07-25T04:57:29;9.23;;;2.70;;
15312;SDS011;7757;52.626;4.746;2022-07-25T04:59:55;8.43;;;2.90;;
15312;SDS011;7757;52.626;4.746;2022-07-25T05:02:22;10.30;;;2.88;;
15312;SDS011;7757;52.626;4.746;2022-07-25T05:04:50;9.48;;;2.72;;
15312;SDS011;7757;52.626;4.746;2022-07-25T05:07:17;7.97;;;2.70;;
15312;SDS011;7757;52.626;4.746;2022-07-25T05:09:44;8.77;;;2.80;;
15312;SDS011;7757;52.626;4.746;2022-07-25T05:12:10;9.55;;;2.80;;
15312;SDS011;7757;52.626;4.746;2022-07-25T05:14:37;9.40;;;2.47;;
15312;SDS011;7757;52.626;4.746;2022-07-25T05:17:04;9.05;;;2.70;;
15312;SDS011;7757;52.626;4.746;2022-07-25T05:19:30;9.30;;;2.50;;
15312;SDS011;7757;52.626;4.746;2022-07-25T05:21:58;9.25;;;2.72;;
15312;SDS011;7757;52.626;4.746;2022-07-25T05:24:25;9.48;;;2.78;;
15312;SDS011;7757;52.626;4.746;2022-07-25T05:26:52;10.52;;;2.80;;
15312;SDS011;7757;52.626;4.746;2022-07-25T05:29:18;8.68;;;2.53;;
15312;SDS011;7757;52.626;4.746;2022-07-25T05:31:45;11.52;;;2.20;;
15312;SDS011;7757;52.626;4.746;2022-07-25T05:34:11;8.88;;;2.70;;
15312;SDS011;7757;52.626;4.746;2022-07-25T05:36:38;9.50;;;2.55;;
15312;SDS011;7757;52.626;4.746;2022-07-25T05:39:06;10.20;;;2.90;;
15312;SDS011;7757;52.626;4.746;2022-07-25T05:41:32;8.70;;;2.55;;
15312;SDS011;7757;52.626;4.746;2022-07-25T05:43:59;8.15;;;2.40;;
15312;SDS011;7757;52.626;4.746;2022-07-25T05:46:25;8.55;;;2.60;;
15312;SDS011;7757;52.626;4.746;2022-07-25T05:48:52;7.78;;;2.40;;
15312;SDS011;7757;52.626;4.746;2022-07-25T05:51:18;9.20;;;2.60;;
15312;SDS011;7757;52.626;4.746;2022-07-25T05:53:45;7.82;;;2.40;;
15312;SDS011;7757;52.626;4.746;2022-07-25T05:56:13;9.63;;;2.70;;
15312;SDS011;7757;52.626;4.746;2022-07-25T05:58:39;8.68;;;2.30;;
15312;SDS011;7757;52.626;4.746;2022-07-25T06:01:06;10.00;;;2.47;;
15312;SDS011;7757;52.626;4.746;2022-07-25T06:03:33;10.13;;;2.40;;
15312;SDS011;7757;52.626;4.746;2022-07-25T06:05:59;9.90;;;2.20;;
15312;SDS011;7757;52.626;4.746;2022-07-25T06:08:26;7.03;;;2.05;;
15312;SDS011;7757;52.626;4.746;2022-07-25T06:10:54;6.22;;;1.90;;
15312;SDS011;7757;52.626;4.746;2022-07-25T06:13:23;8.30;;;2.13;;
15312;SDS011;7757;52.626;4.746;2022-07-25T06:15:49;6.20;;;1.98;;
15312;SDS011;7757;52.626;4.746;2022-07-25T06:18:16;9.88;;;2.15;;
15312;SDS011;7757;52.626;4.746;2022-07-25T06:20:42;9.20;;;2.28;;
15312;SDS011;7757;52.626;4.746;2022-07-25T06:23:09;8.48;;;2.30;;
15312;SDS011;7757;52.626;4.746;2022-07-25T06:25:36;11.95;;;2.53;;
15312;SDS011;7757;52.626;4.746;2022-07-25T06:28:03;7.53;;;2.00;;
15312;SDS011;7757;52.626;4.746;2022-07-25T06:30:31;9.30;;;2.17;;
15312;SDS011;7757;52.626;4.746;2022-07-25T06:32:58;9.73;;;2.35;;
15312;SDS011;7757;52.626;4.746;2022-07-25T06:35:24;7.72;;;2.10;;
15312;SDS011;7757;52.626;4.746;2022-07-25T06:37:51;9.52;;;2.38;;
15312;SDS011;7757;52.626;4.746;2022-07-25T06:40:17;11.10;;;2.60;;
15312;SDS011;7757;52.626;4.746;2022-07-25T06:42:44;9.30;;;2.30;;
15312;SDS011;7757;52.626;4.746;2022-07-25T06:45:12;7.38;;;2.08;;
15312;SDS011;7757;52.626;4.746;2022-07-25T06:47:41;9.57;;;2.10;;
15312;SDS011;7757;52.626;4.746;2022-07-25T06:50:09;8.98;;;2.25;;
15312;SDS011;7757;52.626;4.746;2022-07-25T06:52:37;9.60;;;2.00;;
15312;SDS011;7757;52.626;4.746;2022-07-25T06:55:04;11.32;;;2.05;;
15312;SDS011;7757;52.626;4.746;2022-07-25T06:57:32;8.80;;;2.00;;
15312;SDS011;7757;52.626;4.746;2022-07-25T06:59:59;8.68;;;2.17;;
15312;SDS011;7757;52.626;4.746;2022-07-25T07:02:29;9.75;;;2.08;;
15312;SDS011;7757;52.626;4.746;2022-07-25T07:05:00;8.05;;;2.00;;
15312;SDS011;7757;52.626;4.746;2022-07-25T07:07:26;15.13;;;2.38;;
15312;SDS011;7757;52.626;4.746;2022-07-25T07:09:53;10.55;;;2.30;;
15312;SDS011;7757;52.626;4.746;2022-07-25T07:12:19;12.48;;;2.38;;
15312;SDS011;7757;52.626;4.746;2022-07-25T07:14:46;11.82;;;2.40;;
15312;SDS011;7757;52.626;4.746;2022-07-25T07:17:12;10.48;;;2.10;;
15312;SDS011;7757;52.626;4.746;2022-07-25T07:19:39;11.57;;;2.28;;
15312;SDS011;7757;52.626;4.746;2022-07-25T07:22:09;10.80;;;2.30;;
15312;SDS011;7757;52.626;4.746;2022-07-25T07:24:36;11.50;;;2.40;;
15312;SDS011;7757;52.626;4.746;2022-07-25T07:27:02;12.77;;;2.22;;
15312;SDS011;7757;52.626;4.746;2022-07-25T07:29:29;12.38;;;2.08;;
15312;SDS011;7757;52.626;4.746;2022-07-25T07:31:55;11.45;;;2.33;;
15312;SDS011;7757;52.626;4.746;2022-07-25T07:34:22;12.20;;;2.40;;
15312;SDS011;7757;52.626;4.746;2022-07-25T07:36:48;10.55;;;2.20;;
15312;SDS011;7757;52.626;4.746;2022-07-25T07:39:16;15.00;;;2.28;;
15312;SDS011;7757;52.626;4.746;2022-07-25T07:41:43;9.10;;;2.00;;
15312;SDS011;7757;52.626;4.746;2022-07-25T07:44:09;8.85;;;1.90;;
15312;SDS011;7757;52.626;4.746;2022-07-25T07:46:36;10.65;;;1.90;;
15312;SDS011;7757;52.626;4.746;2022-07-25T07:49:03;8.27;;;1.92;;
15312;SDS011;7757;52.626;4.746;2022-07-25T07:51:29;10.65;;;2.22;;
15312;SDS011;7757;52.626;4.746;2022-07-25T07:53:56;16.55;;;2.60;;
15312;SDS011;7757;52.626;4.746;2022-07-25T07:56:41;9.93;;;2.15;;
15312;SDS011;7757;52.626;4.746;2022-07-25T07:59:09;9.32;;;2.33;;
15312;SDS011;7757;52.626;4.746;2022-07-25T08:01:36;13.63;;;2.42;;
15312;SDS011;7757;52.626;4.746;2022-07-25T08:04:03;10.60;;;2.28;;
15312;SDS011;7757;52.626;4.746;2022-07-25T08:06:30;12.10;;;2.05;;
15312;SDS011;7757;52.626;4.746;2022-07-25T08:08:57;8.27;;;1.83;;
15312;SDS011;7757;52.626;4.746;2022-07-25T08:11:23;9.65;;;1.85;;
15312;SDS011;7757;52.626;4.746;2022-07-25T08:13:52;8.85;;;2.10;;
15312;SDS011;7757;52.626;4.746;2022-07-25T08:16:18;12.70;;;2.58;;
15312;SDS011;7757;52.626;4.746;2022-07-25T08:18:45;10.43;;;2.03;;
15312;SDS011;7757;52.626;4.746;2022-07-25T08:21:11;12.10;;;2.35;;
15312;SDS011;7757;52.626;4.746;2022-07-25T08:23:38;11.73;;;2.50;;
15312;SDS011;7757;52.626;4.746;2022-07-25T08:26:04;7.07;;;1.90;;
15312;SDS011;7757;52.626;4.746;2022-07-25T08:28:31;11.65;;;2.30;;
15312;SDS011;7757;52.626;4.746;2022-07-25T08:30:59;15.43;;;2.63;;
15312;SDS011;7757;52.626;4.746;2022-07-25T08:33:26;10.57;;;2.17;;
15312;SDS011;7757;52.626;4.746;2022-07-25T08:35:53;10.75;;;2.20;;
15312;SDS011;7757;52.626;4.746;2022-07-25T08:38:20;12.00;;;2.25;;
15312;SDS011;7757;52.626;4.746;2022-07-25T08:40:49;11.75;;;2.20;;
15312;SDS011;7757;52.626;4.746;2022-07-25T08:43:16;10.15;;;2.20;;
15312;SDS011;7757;52.626;4.746;2022-07-25T08:45:44;12.77;;;2.35;;
15312;SDS011;7757;52.626;4.746;2022-07-25T08:48:15;13.30;;;2.53;;
15312;SDS011;7757;52.626;4.746;2022-07-25T08:50:43;12.02;;;2.33;;
15312;SDS011;7757;52.626;4.746;2022-07-25T08:53:10;14.95;;;2.95;;
15312;SDS011;7757;52.626;4.746;2022-07-25T08:55:37;11.05;;;2.20;;
15312;SDS011;7757;52.626;4.746;2022-07-25T08:58:04;10.73;;;2.13;;
15312;SDS011;7757;52.626;4.746;2022-07-25T09:00:31;10.55;;;2.30;;
15312;SDS011;7757;52.626;4.746;2022-07-25T09:02:58;10.93;;;2.13;;
15312;SDS011;7757;52.626;4.746;2022-07-25T09:05:28;12.25;;;2.67;;
15312;SDS011;7757;52.626;4.746;2022-07-25T09:07:56;16.52;;;2.40;;
15312;SDS011;7757;52.626;4.746;2022-07-25T09:10:31;13.63;;;2.60;;
15312;SDS011;7757;52.626;4.746;2022-07-25T09:12:58;14.63;;;2.55;;
15312;SDS011;7757;52.626;4.746;2022-07-25T09:15:26;10.57;;;2.05;;
15312;SDS011;7757;52.626;4.746;2022-07-25T09:17:55;14.27;;;3.00;;
15312;SDS011;7757;52.626;4.746;2022-07-25T09:20:23;15.18;;;2.70;;
15312;SDS011;7757;52.626;4.746;2022-07-25T09:22:52;12.10;;;2.10;;
15312;SDS011;7757;52.626;4.746;2022-07-25T09:25:19;13.98;;;2.75;;
15312;SDS011;7757;52.626;4.746;2022-07-25T09:27:47;14.77;;;2.53;;
15312;SDS011;7757;52.626;4.746;2022-07-25T09:30:14;10.50;;;2.50;;
15312;SDS011;7757;52.626;4.746;2022-07-25T09:32:41;13.57;;;2.22;;
15312;SDS011;7757;52.626;4.746;2022-07-25T09:35:08;10.43;;;2.40;;
15312;SDS011;7757;52.626;4.746;2022-07-25T09:37:34;14.52;;;2.60;;
15312;SDS011;7757;52.626;4.746;2022-07-25T09:40:10;12.48;;;2.90;;
15312;SDS011;7757;52.626;4.746;2022-07-25T09:42:37;12.10;;;2.35;;
15312;SDS011;7757;52.626;4.746;2022-07-25T09:45:05;11.80;;;2.50;;
15312;SDS011;7757;52.626;4.746;2022-07-25T09:47:35;12.10;;;2.40;;
15312;SDS011;7757;52.626;4.746;2022-07-25T09:50:04;14.63;;;2.90;;
15312;SDS011;7757;52.626;4.746;2022-07-25T09:52:31;14.13;;;2.58;;
15312;SDS011;7757;52.626;4.746;2022-07-25T09:55:00;14.35;;;2.53;;
15312;SDS011;7757;52.626;4.746;2022-07-25T09:57:30;11.98;;;2.30;;
15312;SDS011;7757;52.626;4.746;2022-07-25T09:59:57;12.63;;;2.90;;
15312;SDS011;7757;52.626;4.746;2022-07-25T10:02:32;16.52;;;2.88;;
15312;SDS011;7757;52.626;4.746;2022-07-25T10:05:08;16.25;;;3.22;;
15312;SDS011;7757;52.626;4.746;2022-07-25T10:07:40;15.65;;;2.63;;
15312;SDS011;7757;52.626;4.746;2022-07-25T10:10:19;12.10;;;2.47;;
15312;SDS011;7757;52.626;4.746;2022-07-25T10:13:02;12.77;;;3.00;;
15312;SDS011;7757;52.626;4.746;2022-07-25T10:15:38;13.90;;;2.88;;
15312;SDS011;7757;52.626;4.746;2022-07-25T10:18:09;14.00;;;2.72;;
15312;SDS011;7757;52.626;4.746;2022-07-25T10:20:35;16.30;;;3.35;;
15312;SDS011;7757;52.626;4.746;2022-07-25T10:23:03;14.52;;;2.90;;
15312;SDS011;7757;52.626;4.746;2022-07-25T10:25:31;14.73;;;3.15;;
15312;SDS011;7757;52.626;4.746;2022-07-25T10:27:59;13.95;;;3.13;;
15312;SDS011;7757;52.626;4.746;2022-07-25T10:30:34;14.45;;;3.50;;
15312;SDS011;7757;52.626;4.746;2022-07-25T10:33:02;15.55;;;2.80;;
15312;SDS011;7757;52.626;4.746;2022-07-25T10:35:30;14.02;;;3.30;;
15312;SDS011;7757;52.626;4.746;2022-07-25T10:37:58;14.00;;;3.28;;
15312;SDS011;7757;52.626;4.746;2022-07-25T10:40:32;14.90;;;3.60;;
15312;SDS011;7757;52.626;4.746;2022-07-25T10:43:05;16.33;;;3.50;;
15312;SDS011;7757;52.626;4.746;2022-07-25T10:45:37;12.93;;;2.80;;
15312;SDS011;7757;52.626;4.746;2022-07-25T10:48:07;10.82;;;2.33;;
15312;SDS011;7757;52.626;4.746;2022-07-25T10:50:45;12.27;;;2.72;;
15312;SDS011;7757;52.626;4.746;2022-07-25T10:53:13;15.68;;;3.67;;
15312;SDS011;7757;52.626;4.746;2022-07-25T10:55:41;13.88;;;3.33;;
15312;SDS011;7757;52.626;4.746;2022-07-25T10:58:12;14.85;;;3.42;;
15312;SDS011;7757;52.626;4.746;2022-07-25T11:00:41;16.20;;;3.05;;
15312;SDS011;7757;52.626;4.746;2022-07-25T11:03:09;16.23;;;3.67;;
15312;SDS011;7757;52.626;4.746;2022-07-25T11:05:42;16.13;;;4.00;;
15312;SDS011;7757;52.626;4.746;2022-07-25T11:08:10;14.13;;;3.63;;
15312;SDS011;7757;52.626;4.746;2022-07-25T11:10:36;13.45;;;3.25;;
15312;SDS011;7757;52.626;4.746;2022-07-25T11:13:04;15.52;;;3.00;;
15312;SDS011;7757;52.626;4.746;2022-07-25T11:15:35;15.40;;;3.30;;
15312;SDS011;7757;52.626;4.746;2022-07-25T11:18:02;15.45;;;3.38;;
15312;SDS011;7757;52.626;4.746;2022-07-25T11:20:28;15.35;;;4.00;;
15312;SDS011;7757;52.626;4.746;2022-07-25T11:22:55;14.93;;;3.55;;
15312;SDS011;7757;52.626;4.746;2022-07-25T11:25:21;15.27;;;3.28;;
15312;SDS011;7757;52.626;4.746;2022-07-25T11:27:49;11.93;;;2.90;;
15312;SDS011;7757;52.626;4.746;2022-07-25T11:30:21;15.38;;;3.45;;
15312;SDS011;7757;52.626;4.746;2022-07-25T11:32:49;18.48;;;3.83;;
15312;SDS011;7757;52.626;4.746;2022-07-25T11:35:18;15.90;;;3.15;;
15312;SDS011;7757;52.626;4.746;2022-07-25T11:37:46;16.98;;;3.60;;
15312;SDS011;7757;52.626;4.746;2022-07-25T11:40:14;16.60;;;3.53;;
15312;SDS011;7757;52.626;4.746;2022-07-25T11:42:43;15.55;;;3.28;;
15312;SDS011;7757;52.626;4.746;2022-07-25T11:45:15;19.20;;;3.28;;
15312;SDS011;7757;52.626;4.746;2022-07-25T11:47:45;16.17;;;3.38;;
15312;SDS011;7757;52.626;4.746;2022-07-25T11:50:12;14.35;;;3.60;;
15312;SDS011;7757;52.626;4.746;2022-07-25T11:52:40;16.20;;;3.80;;
15312;SDS011;7757;52.626;4.746;2022-07-25T11:55:08;12.63;;;2.90;;
15312;SDS011;7757;52.626;4.746;2022-07-25T11:57:36;14.40;;;3.22;;
15312;SDS011;7757;52.626;4.746;2022-07-25T12:00:07;15.43;;;3.25;;
15312;SDS011;7757;52.626;4.746;2022-07-25T12:02:36;18.98;;;3.58;;
15312;SDS011;7757;52.626;4.746;2022-07-25T12:05:05;18.25;;;4.00;;
15312;SDS011;7757;52.626;4.746;2022-07-25T12:07:37;15.60;;;3.58;;
15312;SDS011;7757;52.626;4.746;2022-07-25T12:10:05;17.98;;;3.67;;
15312;SDS011;7757;52.626;4.746;2022-07-25T12:12:46;13.95;;;3.05;;
15312;SDS011;7757;52.626;4.746;2022-07-25T12:15:14;20.58;;;3.67;;
15312;SDS011;7757;52.626;4.746;2022-07-25T12:17:42;18.67;;;3.20;;
15312;SDS011;7757;52.626;4.746;2022-07-25T12:20:13;17.65;;;3.50;;
15312;SDS011;7757;52.626;4.746;2022-07-25T12:22:41;14.10;;;3.35;;
15312;SDS011;7757;52.626;4.746;2022-07-25T12:25:08;16.08;;;3.08;;
15312;SDS011;7757;52.626;4.746;2022-07-25T12:27:36;12.68;;;2.72;;
15312;SDS011;7757;52.626;4.746;2022-07-25T12:30:03;14.10;;;3.05;;
15312;SDS011;7757;52.626;4.746;2022-07-25T12:32:31;14.18;;;3.30;;
15312;SDS011;7757;52.626;4.746;2022-07-25T12:34:57;13.32;;;2.60;;
15312;SDS011;7757;52.626;4.746;2022-07-25T12:37:25;17.10;;;3.83;;
15312;SDS011;7757;52.626;4.746;2022-07-25T12:39:52;14.30;;;2.80;;
15312;SDS011;7757;52.626;4.746;2022-07-25T12:42:19;12.35;;;2.72;;
15312;SDS011;7757;52.626;4.746;2022-07-25T12:44:45;13.68;;;3.15;;
15312;SDS011;7757;52.626;4.746;2022-07-25T12:47:12;15.38;;;3.50;;
15312;SDS011;7757;52.626;4.746;2022-07-25T12:49:39;12.68;;;3.10;;
15312;SDS011;7757;52.626;4.746;2022-07-25T12:52:05;13.30;;;3.20;;
15312;SDS011;7757;52.626;4.746;2022-07-25T12:54:34;12.20;;;2.63;;
15312;SDS011;7757;52.626;4.746;2022-07-25T12:57:00;15.13;;;3.22;;
15312;SDS011;7757;52.626;4.746;2022-07-25T12:59:27;18.63;;;3.40;;
15312;SDS011;7757;52.626;4.746;2022-07-25T13:01:53;14.55;;;2.78;;
15312;SDS011;7757;52.626;4.746;2022-07-25T13:04:20;14.18;;;3.05;;
15312;SDS011;7757;52.626;4.746;2022-07-25T13:06:46;15.40;;;3.38;;
15312;SDS011;7757;52.626;4.746;2022-07-25T13:09:13;12.65;;;2.85;;
15312;SDS011;7757;52.626;4.746;2022-07-25T13:11:41;15.23;;;3.55;;
15312;SDS011;7757;52.626;4.746;2022-07-25T13:14:07;15.38;;;3.63;;
15312;SDS011;7757;52.626;4.746;2022-07-25T13:16:34;15.10;;;3.00;;
15312;SDS011;7757;52.626;4.746;2022-07-25T13:19:01;13.57;;;3.00;;
15312;SDS011;7757;52.626;4.746;2022-07-25T13:21:28;13.30;;;2.30;;
15312;SDS011;7757;52.626;4.746;2022-07-25T13:23:55;13.90;;;2.92;;
15312;SDS011;7757;52.626;4.746;2022-07-25T13:26:22;11.60;;;2.88;;
15312;SDS011;7757;52.626;4.746;2022-07-25T13:28:50;11.65;;;2.40;;
15312;SDS011;7757;52.626;4.746;2022-07-25T13:31:17;17.15;;;3.40;;
15312;SDS011;7757;52.626;4.746;2022-07-25T13:33:44;14.02;;;2.90;;
15312;SDS011;7757;52.626;4.746;2022-07-25T13:36:10;19.65;;;3.42;;
15312;SDS011;7757;52.626;4.746;2022-07-25T13:38:36;14.50;;;2.90;;
15312;SDS011;7757;52.626;4.746;2022-07-25T13:41:05;18.13;;;3.00;;
15312;SDS011;7757;52.626;4.746;2022-07-25T13:43:32;15.35;;;3.00;;
15312;SDS011;7757;52.626;4.746;2022-07-25T13:45:59;15.40;;;3.08;;
15312;SDS011;7757;52.626;4.746;2022-07-25T13:48:26;16.70;;;3.00;;
15312;SDS011;7757;52.626;4.746;2022-07-25T13:50:53;14.65;;;2.90;;
15312;SDS011;7757;52.626;4.746;2022-07-25T13:53:21;13.52;;;2.85;;
15312;SDS011;7757;52.626;4.746;2022-07-25T13:55:47;16.80;;;3.75;;
15312;SDS011;7757;52.626;4.746;2022-07-25T13:58:14;17.13;;;3.08;;
15312;SDS011;7757;52.626;4.746;2022-07-25T14:00:41;19.83;;;3.45;;
15312;SDS011;7757;52.626;4.746;2022-07-25T14:03:10;15.40;;;2.88;;
15312;SDS011;7757;52.626;4.746;2022-07-25T14:05:37;14.57;;;2.60;;
15312;SDS011;7757;52.626;4.746;2022-07-25T14:08:04;14.52;;;2.28;;
15312;SDS011;7757;52.626;4.746;2022-07-25T14:10:31;17.17;;;2.83;;
15312;SDS011;7757;52.626;4.746;2022-07-25T14:12:58;14.23;;;2.65;;
15312;SDS011;7757;52.626;4.746;2022-07-25T14:15:24;16.10;;;3.30;;
15312;SDS011;7757;52.626;4.746;2022-07-25T14:17:51;13.32;;;3.05;;
15312;SDS011;7757;52.626;4.746;2022-07-25T14:20:19;11.43;;;2.35;;
15312;SDS011;7757;52.626;4.746;2022-07-25T14:22:46;15.35;;;2.78;;
15312;SDS011;7757;52.626;4.746;2022-07-25T14:25:12;16.92;;;3.03;;
15312;SDS011;7757;52.626;4.746;2022-07-25T14:27:39;19.10;;;2.88;;
15312;SDS011;7757;52.626;4.746;2022-07-25T14:30:06;16.85;;;3.28;;
15312;SDS011;7757;52.626;4.746;2022-07-25T14:32:35;12.00;;;2.60;;
15312;SDS011;7757;52.626;4.746;2022-07-25T14:35:02;14.60;;;3.15;;
15312;SDS011;7757;52.626;4.746;2022-07-25T14:37:32;12.80;;;2.70;;
15312;SDS011;7757;52.626;4.746;2022-07-25T14:39:59;15.48;;;2.70;;
15312;SDS011;7757;52.626;4.746;2022-07-25T14:42:26;16.95;;;2.80;;
15312;SDS011;7757;52.626;4.746;2022-07-25T14:44:53;16.23;;;3.17;;
15312;SDS011;7757;52.626;4.746;2022-07-25T14:47:20;14.40;;;2.83;;
15312;SDS011;7757;52.626;4.746;2022-07-25T14:49:47;17.10;;;3.33;;
15312;SDS011;7757;52.626;4.746;2022-07-25T14:52:14;20.52;;;3.30;;